Estación de Freire

Ultimos registro cada 15 minutos 62
Estación Fecha / Hora Temperatura Humedad Lluvia Velocidad Dirección Radiación Presion
62 Freire 09-05-2026 19:15 9,1 81 0 1,8 176 0 1009,6
61 Freire 09-05-2026 19:00 9,5 80 0 0,4 176 0 1009,6
60 Freire 09-05-2026 18:45 9,8 79 0 0 176 0 1009,6
59 Freire 09-05-2026 18:30 10,2 78 0 0,4 176 0 1009,6
58 Freire 09-05-2026 18:15 10,3 79 0 0 176 0 1009,6
57 Freire 09-05-2026 18:00 10,7 79 0,3 0,9 176 0 1009,6
56 Freire 09-05-2026 17:45 11,1 78 0 0 176 5 1009,6
55 Freire 09-05-2026 17:30 11,9 75 0 0 176 9 1009,6
54 Freire 09-05-2026 17:15 13 73 0 0 20 19 1009,6
53 Freire 09-05-2026 17:00 13,9 70 0 0 331 98 1009,6
52 Freire 09-05-2026 16:45 15 64 0 0,4 287 216 1009,6
51 Freire 09-05-2026 16:30 15 64 0 0,4 287 216 1009,6
50 Freire 09-05-2026 16:00 15,3 62 0 0 198 253 1009,6
49 Freire 09-05-2026 15:45 15,4 61 0 0 230 290 1009,6
48 Freire 09-05-2026 15:15 15,7 63 0 0,9 237 355 1009,6
47 Freire 09-05-2026 15:00 15,8 61 0 0,4 231 381 1009,6
46 Freire 09-05-2026 14:45 15,9 61 0,3 0,9 245 408 1009,6
45 Freire 09-05-2026 14:15 15,7 61 0 0,4 343 454 1009,6
44 Freire 09-05-2026 14:00 15,6 61 0 0,9 204 468 1009,6
43 Freire 09-05-2026 13:45 15,6 62 0,3 0,9 296 476 1009,6
42 Freire 09-05-2026 13:15 15,1 58 0 0,4 290 469 1009,6
41 Freire 09-05-2026 13:00 15,1 60 0 0,9 214 506 1009,6
40 Freire 09-05-2026 12:45 14,6 62 0 0 224 504 1009,6
39 Freire 09-05-2026 12:15 13,7 61 0 0,4 230 496 1009,6
38 Freire 09-05-2026 12:00 12,9 66 0 0,4 230 485 1009,6
37 Freire 09-05-2026 11:45 12,3 60 0 2,2 230 471 1009,6
36 Freire 09-05-2026 11:15 11,3 66 0,3 0,9 240 436 1009,6
35 Freire 09-05-2026 11:00 11,2 68 0 0 201 413 1009,6
34 Freire 09-05-2026 10:45 10,6 70 0 0 230 387 1009,6
33 Freire 09-05-2026 10:30 10,5 66 0 1,8 226 329 1009,6
32 Freire 09-05-2026 10:15 10,5 66 0 1,8 226 329 1009,6
31 Freire 09-05-2026 10:00 9,9 68 0 0,4 219 294 1009,6
30 Freire 09-05-2026 09:45 9,1 71 0 0 211 257 1009,6
29 Freire 09-05-2026 09:15 5,6 90 0 1,3 176 185 1009,6
28 Freire 09-05-2026 09:00 3,5 95 0 0 176 70 1009,6
27 Freire 09-05-2026 08:45 2,8 94 0 0 254 16 1009,6
26 Freire 09-05-2026 08:15 2,6 92 0 0 242 12 1009,6
25 Freire 09-05-2026 08:00 2,9 90 0,3 0 242 9 1009,6
24 Freire 09-05-2026 07:45 3,5 88 0 0 242 0 1009,6
23 Freire 09-05-2026 07:15 5,2 83 0 0 176 0 1009,6
22 Freire 09-05-2026 07:00 5,5 81 0 0 247 0 1009,6
21 Freire 09-05-2026 06:45 6 80 0 0 217 0 1009,6
20 Freire 09-05-2026 06:15 4,7 86 0 0 211 0 1009,6
19 Freire 09-05-2026 06:00 4,1 89 0 0 61 0 1009,6
18 Freire 09-05-2026 05:45 4,6 87 0 0 60 0 1009,6
17 Freire 09-05-2026 05:15 6,9 80 0,3 0 176 0 1009,6
16 Freire 09-05-2026 05:00 7,6 75 0 0,4 176 0 1009,6
15 Freire 09-05-2026 04:45 7 78 0 0,9 176 0 1009,6
14 Freire 09-05-2026 04:15 3,8 93 0 0 272 0 1009,6
13 Freire 09-05-2026 04:00 4 92 0,3 0 270 0 1009,6
12 Freire 09-05-2026 03:45 4,3 90 0 0 264 0 1009,6
11 Freire 09-05-2026 03:15 5,9 85 0 0 243 0 1009,6
10 Freire 09-05-2026 03:00 6,9 81 0 0 241 0 1009,6
9 Freire 09-05-2026 02:45 6,8 80 0,3 0 279 0 1009,6
8 Freire 09-05-2026 02:15 6,4 84 0 0,4 176 0 1009,6
7 Freire 09-05-2026 02:00 6,4 86 0 0 176 0 1009,6
6 Freire 09-05-2026 01:45 5,8 88 0,3 0 176 0 1009,6
5 Freire 09-05-2026 01:15 5,6 90 0 0 337 0 1009,6
4 Freire 09-05-2026 01:00 6,3 88 0 0 176 0 1009,6
3 Freire 09-05-2026 00:45 8 83 0,3 0,4 176 0 1009,6
2 Freire 09-05-2026 00:15 8,1 82 0 0,9 176 0 1009,6
1 Freire 09-05-2026 00:00 8,1 82 0 0,9 176 0 1009,6